Terminal Aerodrome Forecast
Issued by NWS

Current Version | Previous Version | Text Only | Print | Product List | Glossary On
Versions: 1 2 3 4 5 6 7 8 9 10 11 12 13 14 15 16 17 18 19
000
FTUS43 KABR 242200 AAA
TAFATY
TAF AMD
KATY 242200Z 2422/2518 VRB06KT P6SM FEW070 BKN100 OVC120
      TEMPO 2422/2424 30013G23KT
     FM250100 29006KT P6SM FEW250=

USA.gov is the U.S. government's official web portal to all federal, state and local government web resources and services.